Nantucket, Massachusetts
Current Conditions -  °F | °C
As of 3:00 PM on Monday 24 Nov 2014 (Local Time) from KACK Reporting Station
Haze Haze  
Wind Chill: 60°   Ceiling: 400
Heat Index: 60°   Visibility: 2mi
Dew Point: 57°   Wind: 20mph
Humidity: 90%   Direction: 180°S
Pressure: 29.74"   Gusts: 39mph
Location:  41.28°N, 70.1°W
Report Text: KACK 242000Z 18017G34KT 2SM R24/5500VP6000FT BR BKN004 BKN022 OVC030 16/14 A2974 RMK AO2 PK WND 18031/1954 T01560139
Loading
Personal Weather Stations






























Interactive Weather Map New forecast layout! Learn more

10-Day Weather Forecast

Advertisements
Track Severe Weather on mobile